Terminal Aerodrome Forecast
Issued by NWS Pocatello, ID

Home | Current Version | Previous Version | Text Only | Print | Product List | Glossary On
Versions: 1 2 3 4 5 6 7 8 9 10 11 12 13 14 15 16 17 18 19 20 21 22 23 24 25 26 27 28 29
146
FTUS45 KPIH 242105 AAB
TAFPIH
TAF AMD
KPIH 242105Z 2421/2518 25009KT 3SM -SN BR SCT008 OVC025
      TEMPO 2421/2422 1SM -SN BR OVC015
     FM242200 26010KT 5SM -SN BR SCT025 OVC040
     FM250200 23006KT 6SM BR VCSH SCT008 OVC015
     FM251100 24006KT 5SM BR BKN008 OVC080=

USA.gov is the U.S. government's official web portal to all federal, state and local government web resources and services.